Time;durP1;ratioP1;P1;durP2;ratioP2;P2;SDS_P1;SDS_P2;PMS_P1;PMS_P2;Temp;Humidity;BMP_temperature;BMP_pressure;BME280_temperature;BME280_humidity;BME280_pressure;Samples;Min_cycle;Max_cycle;Signal;HPM_P1;HPM_P2
2022/06/28 00:01:13;;;;;;;15.73;8.25;;;;;;;15.59;100.00;101695.66;5024076;28;20416;-70
2022/06/28 00:03:41;;;;;;;13.10;7.13;;;;;;;15.55;100.00;101694.13;5022581;28;20051;-70
2022/06/28 00:06:08;;;;;;;14.80;7.38;;;;;;;15.52;100.00;101697.72;5024096;28;20052;-69
2022/06/28 00:08:34;;;;;;;17.05;7.70;;;;;;;15.45;100.00;101688.19;5022783;28;20058;-69
2022/06/28 00:11:01;;;;;;;18.13;7.97;;;;;;;15.47;100.00;101693.38;5024451;28;20500;-70
2022/06/28 00:13:27;;;;;;;13.43;6.95;;;;;;;15.46;100.00;101695.34;5026290;28;20060;-70
2022/06/28 00:16:06;;;;;;;14.23;7.55;;;;;;;15.44;100.00;101692.19;5019154;28;20055;-70
2022/06/28 00:18:38;;;;;;;17.33;7.65;;;;;;;15.44;100.00;101688.59;5018380;28;20052;-70
2022/06/28 00:21:06;;;;;;;14.30;7.10;;;;;;;15.38;100.00;101693.81;5020239;28;20060;-69
2022/06/28 00:23:35;;;;;;;15.40;7.07;;;;;;;15.30;100.00;101692.22;5018793;28;20974;-69
2022/06/28 00:26:02;;;;;;;16.02;7.20;;;;;;;15.27;100.00;101679.09;5020291;28;20492;-69
2022/06/28 00:28:28;;;;;;;16.08;7.35;;;;;;;15.25;100.00;101689.84;5023824;28;20127;-69
2022/06/28 00:30:55;;;;;;;16.00;7.68;;;;;;;15.21;100.00;101679.91;5021287;28;20049;-69
2022/06/28 00:33:22;;;;;;;17.80;7.38;;;;;;;15.24;100.00;101684.69;5020740;28;20052;-70
2022/06/28 00:35:48;;;;;;;15.40;6.97;;;;;;;15.23;100.00;101688.69;5020517;28;20049;-70
2022/06/28 00:38:16;;;;;;;15.52;7.38;;;;;;;15.20;100.00;101681.94;5020521;28;20256;-69
2022/06/28 00:40:48;;;;;;;13.82;6.93;;;;;;;15.19;100.00;101683.09;5018468;28;20057;-69
2022/06/28 00:43:15;;;;;;;17.52;7.30;;;;;;;15.15;100.00;101681.53;5017495;28;20048;-70
2022/06/28 00:45:43;;;;;;;14.85;7.22;;;;;;;15.09;100.00;101681.16;5014932;28;20655;-70
2022/06/28 00:48:15;;;;;;;16.00;7.38;;;;;;;15.08;100.00;101684.34;5020785;28;20067;-72
2022/06/28 00:50:42;;;;;;;13.02;6.75;;;;;;;15.09;100.00;101686.72;5021646;28;20049;-70
2022/06/28 00:53:12;;;;;;;15.13;7.05;;;;;;;15.06;100.00;101693.13;5019832;28;20182;-70
2022/06/28 00:55:39;;;;;;;13.70;7.07;;;;;;;15.05;100.00;101697.13;5022832;28;20484;-69
2022/06/28 00:58:06;;;;;;;16.42;6.70;;;;;;;15.03;100.00;101691.16;5024900;28;20040;-71
2022/06/28 01:00:36;;;;;;;15.07;6.63;;;;;;;14.96;100.00;101685.59;5023944;28;20048;-70
2022/06/28 01:03:03;;;;;;;14.05;7.03;;;;;;;14.99;100.00;101695.94;5020030;28;20441;-72
2022/06/28 01:05:30;;;;;;;14.18;6.60;;;;;;;14.99;100.00;101698.72;5021450;28;20887;-70
2022/06/28 01:07:59;;;;;;;18.02;7.40;;;;;;;14.95;100.00;101692.38;5023188;28;20063;-70
2022/06/28 01:10:26;;;;;;;16.13;7.35;;;;;;;14.90;100.00;101698.38;5054327;28;20053;-70
2022/06/28 01:12:52;;;;;;;15.88;7.22;;;;;;;14.90;100.00;101701.16;5019218;28;20041;-70
2022/06/28 01:15:19;;;;;;;14.77;6.70;;;;;;;14.86;100.00;101703.16;5021121;28;20044;-69
2022/06/28 01:17:46;;;;;;;13.38;6.35;;;;;;;14.86;100.00;101702.38;5019993;28;20152;-70
2022/06/28 01:20:12;;;;;;;14.55;6.97;;;;;;;14.84;100.00;101701.97;5023108;28;20200;-70
2022/06/28 01:22:41;;;;;;;14.50;6.10;;;;;;;14.78;100.00;101704.38;5023074;28;20162;-70
2022/06/28 01:25:09;;;;;;;13.07;6.40;;;;;;;14.80;100.00;101706.75;5021162;28;20041;-72
2022/06/28 01:27:36;;;;;;;17.85;7.05;;;;;;;14.77;100.00;101708.34;5016198;28;20054;-70
2022/06/28 01:30:05;;;;;;;13.50;6.07;;;;;;;14.75;100.00;101712.75;5027467;28;20052;-71
2022/06/28 01:32:32;;;;;;;13.85;6.22;;;;;;;14.66;100.00;101698.44;5015678;28;20047;-69
2022/06/28 01:35:00;;;;;;;13.60;6.07;;;;;;;14.74;100.00;101714.72;5017815;28;20049;-70
2022/06/28 01:37:27;;;;;;;14.65;6.25;;;;;;;14.72;100.00;101714.31;5018380;28;20049;-69
2022/06/28 01:39:54;;;;;;;15.73;6.20;;;;;;;14.70;100.00;101713.94;5021962;28;20059;-70
2022/06/28 01:42:20;;;;;;;15.13;7.03;;;;;;;14.67;100.00;101723.09;5040414;28;20053;-70
2022/06/28 01:44:48;;;;;;;15.95;6.35;;;;;;;14.64;100.00;101729.47;5040998;28;20140;-70
2022/06/28 01:47:17;;;;;;;15.00;6.80;;;;;;;14.62;100.00;101720.72;5037328;28;20061;-71
2022/06/28 01:49:44;;;;;;;15.43;6.60;;;;;;;14.62;100.00;101729.06;5043634;28;20061;-72
2022/06/28 01:52:10;;;;;;;12.23;5.65;;;;;;;14.60;100.00;101727.88;5048546;28;20457;-70
2022/06/28 01:54:37;;;;;;;12.77;5.72;;;;;;;14.60;100.00;101736.25;5048981;28;20084;-70
2022/06/28 01:57:04;;;;;;;13.40;5.47;;;;;;;14.58;100.00;101739.41;5041875;28;20620;-70
2022/06/28 01:59:30;;;;;;;12.23;5.90;;;;;;;14.53;100.00;101741.81;5048159;28;20132;-70
2022/06/28 02:01:57;;;;;;;12.65;5.88;;;;;;;14.51;100.00;101745.00;5048426;28;20128;-70
2022/06/28 02:04:26;;;;;;;14.88;7.32;;;;;;;14.50;100.00;101746.22;5044882;28;20549;-70
2022/06/28 02:06:53;;;;;;;12.50;6.10;;;;;;;14.47;100.00;101748.97;5047422;28;20132;-70
2022/06/28 02:09:20;;;;;;;14.05;6.43;;;;;;;14.44;100.00;101747.78;5046952;28;20053;-70
2022/06/28 02:11:47;;;;;;;15.23;6.45;;;;;;;14.42;100.00;101747.41;5049278;28;20104;-70
2022/06/28 02:14:13;;;;;;;15.93;7.25;;;;;;;14.36;100.00;101749.00;5044520;28;20045;-70
2022/06/28 02:16:40;;;;;;;12.90;6.53;;;;;;;14.40;100.00;101755.38;5045521;28;20045;-71
2022/06/28 02:19:07;;;;;;;13.15;5.97;;;;;;;14.38;100.00;101752.16;5044810;28;20135;-70
2022/06/28 02:21:41;;;;;;;16.00;7.63;;;;;;;14.32;100.00;101756.56;5045253;28;20154;-70
2022/06/28 02:24:09;;;;;;;14.27;6.73;;;;;;;14.27;100.00;101756.94;5041740;28;20052;-70
2022/06/28 02:26:36;;;;;;;15.63;7.45;;;;;;;14.22;100.00;101757.34;5048994;28;20375;-70
2022/06/28 02:29:05;;;;;;;13.82;7.13;;;;;;;14.22;100.00;101756.53;5046619;28;20481;-70
2022/06/28 02:31:31;;;;;;;12.52;6.30;;;;;;;14.23;100.00;101763.69;5046939;28;20048;-70
2022/06/28 02:33:58;;;;;;;12.60;6.68;;;;;;;14.21;100.00;101764.06;5052469;28;20124;-70
2022/06/28 02:41:46;;;;;;;13.68;6.95;;;;;;;14.18;100.00;101764.84;5045163;28;20048;-71
2022/06/28 02:44:16;;;;;;;15.20;6.88;;;;;;;14.12;100.00;101762.88;5047111;28;20533;-71
2022/06/28 02:46:42;;;;;;;12.25;6.28;;;;;;;14.10;100.00;101766.06;5044761;28;20115;-70
2022/06/28 02:49:09;;;;;;;15.75;7.05;;;;;;;14.05;100.00;101771.22;5043249;28;20062;-70
2022/06/28 02:51:36;;;;;;;13.07;6.40;;;;;;;14.05;100.00;101769.25;5040958;28;20920;-70
2022/06/28 02:54:06;;;;;;;14.73;7.18;;;;;;;14.05;100.00;101776.78;5045587;28;20061;-70
2022/06/28 02:56:33;;;;;;;13.32;6.93;;;;;;;14.05;100.00;101776.78;5046023;28;20045;-70
2022/06/28 02:59:00;;;;;;;16.55;6.82;;;;;;;14.00;100.00;101769.63;5045334;28;20076;-71
2022/06/28 03:01:26;;;;;;;14.13;7.00;;;;;;;13.99;100.00;101773.59;5044864;28;20051;-70
2022/06/28 03:03:53;;;;;;;16.50;7.80;;;;;;;13.99;100.00;101770.00;5044070;28;20242;-71
2022/06/28 03:06:19;;;;;;;18.55;7.50;;;;;;;13.99;100.00;101773.59;5046540;28;20045;-70
2022/06/28 03:08:46;;;;;;;14.73;6.38;;;;;;;13.96;100.00;101776.34;5042248;28;20776;-70
2022/06/28 03:11:12;;;;;;;14.43;7.03;;;;;;;13.89;100.00;101774.38;5045286;28;20144;-72
2022/06/28 03:13:39;;;;;;;12.70;6.53;;;;;;;13.90;100.00;101778.75;5045437;28;20079;-71
2022/06/28 03:16:05;;;;;;;13.57;6.70;;;;;;;13.89;100.00;101779.13;5041934;28;20044;-70
2022/06/28 03:18:32;;;;;;;15.65;6.75;;;;;;;13.86;100.00;101780.72;5043854;28;20045;-70
2022/06/28 03:20:59;;;;;;;14.45;6.68;;;;;;;13.85;100.00;101779.13;5047004;28;20048;-70
2022/06/28 03:23:25;;;;;;;15.45;6.80;;;;;;;13.81;100.00;101781.13;5044423;28;20136;-70
2022/06/28 03:25:52;;;;;;;13.02;6.78;;;;;;;13.78;100.00;101787.47;5046009;28;20132;-70
2022/06/28 03:28:19;;;;;;;12.82;6.45;;;;;;;13.79;100.00;101794.63;5043299;28;20053;-70
2022/06/28 03:30:51;;;;;;;16.52;6.88;;;;;;;13.76;100.00;101795.41;5036093;28;20421;-70
2022/06/28 03:33:17;;;;;;;15.35;6.82;;;;;;;13.78;100.00;101793.03;5041642;28;20497;-71
2022/06/28 03:35:44;;;;;;;15.82;7.63;;;;;;;13.77;100.00;101805.31;5042228;28;20644;-70
2022/06/28 03:38:11;;;;;;;14.07;6.85;;;;;;;13.80;100.00;101803.75;5043717;28;20585;-71
2022/06/28 03:40:37;;;;;;;13.80;7.13;;;;;;;13.80;100.00;101801.75;5045869;28;20051;-71
2022/06/28 03:43:05;;;;;;;16.90;6.97;;;;;;;13.82;100.00;101801.38;5045627;28;20136;-70
2022/06/28 03:45:32;;;;;;;15.05;7.35;;;;;;;13.84;100.00;101799.00;5039867;28;20068;-71
2022/06/28 03:47:58;;;;;;;15.13;7.45;;;;;;;13.81;100.00;101797.00;5041687;28;20132;-70
2022/06/28 03:50:25;;;;;;;17.15;7.55;;;;;;;13.81;100.00;101795.03;5043871;28;20617;-71
2022/06/28 03:52:52;;;;;;;15.32;7.75;;;;;;;13.85;100.00;101814.50;5045403;28;20049;-71
2022/06/28 03:55:18;;;;;;;16.17;7.80;;;;;;;13.82;100.00;101807.75;5038454;28;20088;-71
2022/06/28 03:57:45;;;;;;;16.95;8.32;;;;;;;13.82;100.00;101815.28;5046081;28;20143;-70
2022/06/28 04:00:12;;;;;;;17.10;7.78;;;;;;;13.83;100.00;101820.44;5044779;28;20060;-71
2022/06/28 04:02:39;;;;;;;15.98;8.02;;;;;;;13.85;100.00;101811.72;5046238;28;20659;-71
2022/06/28 04:05:07;;;;;;;15.73;8.10;;;;;;;13.86;100.00;101819.66;5043796;28;20072;-71
2022/06/28 04:07:37;;;;;;;17.98;8.55;;;;;;;13.89;100.00;101821.66;5046822;28;20851;-71
2022/06/28 04:10:04;;;;;;;18.42;8.07;;;;;;;13.91;100.00;101816.50;5044950;28;20510;-72
2022/06/28 04:12:31;;;;;;;14.73;7.63;;;;;;;13.91;100.00;101822.06;5043254;28;20045;-71
2022/06/28 04:14:57;;;;;;;19.05;9.10;;;;;;;13.94;100.00;101821.28;5043998;28;20053;-71
2022/06/28 04:17:24;;;;;;;17.42;8.10;;;;;;;13.99;100.00;101817.31;5044923;28;20144;-71
2022/06/28 04:19:50;;;;;;;14.68;8.45;;;;;;;14.05;100.00;101824.09;5040038;28;20402;-71
2022/06/28 04:22:17;;;;;;;15.77;8.60;;;;;;;14.06;100.00;101814.53;5044423;28;20044;-71
2022/06/28 04:24:43;;;;;;;14.07;7.88;;;;;;;14.14;100.00;101824.53;5045215;28;20569;-71
2022/06/28 04:27:10;;;;;;;17.30;7.82;;;;;;;14.20;100.00;101828.47;5044734;28;20055;-71
2022/06/28 04:29:36;;;;;;;19.42;8.07;;;;;;;14.21;100.00;101821.75;5039686;28;20135;-71
2022/06/28 04:32:03;;;;;;;17.83;8.40;;;;;;;14.25;100.00;101825.34;5043917;28;20128;-71
2022/06/28 04:34:31;;;;;;;18.13;8.52;;;;;;;14.28;100.00;101830.91;5043636;28;20139;-71
2022/06/28 04:36:58;;;;;;;14.75;7.55;;;;;;;14.34;100.00;101831.34;5043238;28;20103;-71
2022/06/28 04:39:25;;;;;;;16.23;9.23;;;;;;;14.40;100.00;101830.53;5043528;28;20682;-71
2022/06/28 04:41:51;;;;;;;17.05;8.77;;;;;;;14.48;100.00;101818.19;5042689;28;20076;-70
2022/06/28 04:44:18;;;;;;;17.80;9.18;;;;;;;14.55;100.00;101821.00;5040056;28;20420;-72
2022/06/28 04:46:44;;;;;;;18.23;9.57;;;;;;;14.63;100.00;101819.81;5043452;28;20040;-71
2022/06/28 04:49:11;;;;;;;19.30;9.30;;;;;;;14.73;100.00;101818.22;5040032;28;20076;-71
2022/06/28 04:51:37;;;;;;;20.05;9.88;;;;;;;14.78;100.00;101818.59;5043773;28;20053;-71
2022/06/28 04:54:04;;;;;;;21.55;12.63;;;;;;;14.89;100.00;101826.97;5039678;28;20049;-70
2022/06/28 04:56:30;;;;;;;26.17;13.70;;;;;;;14.96;100.00;101827.72;5043618;28;20048;-70
2022/06/28 04:58:57;;;;;;;25.15;13.55;;;;;;;15.06;100.00;101828.91;5039089;28;20136;-71
2022/06/28 05:01:23;;;;;;;22.15;13.13;;;;;;;15.16;100.00;101826.09;5043451;28;20048;-73
2022/06/28 05:03:50;;;;;;;22.58;12.43;;;;;;;15.23;100.00;101828.88;5037965;28;20084;-72
2022/06/28 05:06:17;;;;;;;22.15;11.73;;;;;;;15.29;100.00;101830.06;5043861;28;20076;-71
2022/06/28 05:08:52;;;;;;;21.90;11.45;;;;;;;15.36;100.00;101829.28;5044785;28;20060;-71
2022/06/28 05:11:32;;;;;;;24.25;11.13;;;;;;;15.43;100.00;101830.03;5035151;28;20839;-71
2022/06/28 05:13:59;;;;;;;26.20;12.55;;;;;;;15.53;100.00;101826.41;5047453;28;20081;-72
2022/06/28 05:16:27;;;;;;;22.88;12.18;;;;;;;15.62;100.00;101825.22;5044684;28;20568;-71
2022/06/28 05:18:53;;;;;;;22.60;12.10;;;;;;;15.71;100.00;101829.13;5041973;28;20049;-72
2022/06/28 05:21:20;;;;;;;22.88;12.45;;;;;;;15.82;100.00;101831.91;5034018;28;20072;-71
2022/06/28 05:23:46;;;;;;;22.48;11.23;;;;;;;15.91;100.00;101821.06;5040290;28;20501;-71
2022/06/28 05:26:13;;;;;;;24.50;10.32;;;;;;;15.95;100.00;101819.84;5036653;28;20655;-71
2022/06/28 05:28:40;;;;;;;21.67;10.50;;;;;;;16.09;100.00;101827.31;5039117;28;20131;-71
2022/06/28 05:31:06;;;;;;;20.38;10.35;;;;;;;16.20;100.00;101819.69;5042569;28;20063;-71
2022/06/28 05:33:33;;;;;;;21.27;10.32;;;;;;;16.23;100.00;101827.25;5032908;28;20052;-71
2022/06/28 05:36:01;;;;;;;21.65;9.20;;;;;;;16.33;100.00;101821.59;5039988;28;20049;-71
2022/06/28 05:38:28;;;;;;;17.60;8.85;;;;;;;16.43;100.00;101819.97;5042757;28;20053;-71
2022/06/28 05:40:55;;;;;;;17.45;8.68;;;;;;;16.46;100.00;101821.91;5040556;28;20159;-70
2022/06/28 05:43:21;;;;;;;18.65;9.23;;;;;;;16.58;100.00;101829.81;5041030;28;20080;-70
2022/06/28 05:45:48;;;;;;;20.75;8.60;;;;;;;16.66;100.00;101828.53;5036868;28;20509;-71
2022/06/28 05:48:14;;;;;;;20.20;9.32;;;;;;;16.73;100.00;101822.88;5042378;28;20045;-71
2022/06/28 05:50:41;;;;;;;18.45;8.32;;;;;;;16.83;100.00;101833.19;5038739;28;20140;-70
2022/06/28 05:53:08;;;;;;;18.77;8.70;;;;;;;16.88;100.00;101832.75;5043398;28;20053;-71
2022/06/28 05:55:34;;;;;;;8.52;3.38;;;;;;;16.88;100.00;101835.53;5045379;28;20064;-71
2022/06/28 05:58:01;;;;;;;14.93;6.75;;;;;;;16.98;100.00;101827.03;5044933;28;20135;-71
2022/06/28 06:00:28;;;;;;;17.92;7.85;;;;;;;17.05;100.00;101826.19;5039664;28;20477;-70
2022/06/28 06:02:54;;;;;;;16.23;7.10;;;;;;;17.06;100.00;101833.38;5036750;28;20631;-70
2022/06/28 06:05:21;;;;;;;15.35;6.38;;;;;;;17.11;100.00;101827.34;5023357;28;20053;-71
2022/06/28 06:07:47;;;;;;;17.23;7.30;;;;;;;17.21;100.00;101824.41;5042585;28;20175;-71
2022/06/28 06:10:14;;;;;;;18.85;7.03;;;;;;;17.34;100.00;101838.66;5044407;28;20758;-71
2022/06/28 06:12:40;;;;;;;17.02;7.15;;;;;;;17.38;100.00;101823.41;5043386;28;20140;-71
2022/06/28 06:15:08;;;;;;;8.50;2.80;;;;;;;17.35;100.00;101838.22;5039736;28;20085;-71
2022/06/28 06:17:35;;;;;;;12.98;4.75;;;;;;;17.38;100.00;101825.44;5036608;28;20132;-71
2022/06/28 06:20:07;;;;;;;7.78;3.97;;;;;;;17.48;100.00;101824.53;5040445;28;20073;-74
2022/06/28 06:22:33;;;;;;;14.48;5.60;;;;;;;17.56;100.00;101835.22;5041153;28;20065;-71
2022/06/28 06:25:00;;;;;;;5.80;2.13;;;;;;;17.56;100.00;101834.44;5036424;28;20053;-71
2022/06/28 06:27:26;;;;;;;6.45;2.08;;;;;;;17.59;100.00;101842.78;5041199;28;20076;-70
2022/06/28 06:29:53;;;;;;;9.43;3.08;;;;;;;17.67;100.00;101843.50;5048444;28;20056;-70
2022/06/28 06:32:20;;;;;;;17.25;6.80;;;;;;;17.82;100.00;101840.09;5043311;28;20049;-70
2022/06/28 06:34:46;;;;;;;18.65;6.68;;;;;;;17.91;100.00;101839.59;5046839;28;20064;-70
2022/06/28 06:37:13;;;;;;;14.82;6.35;;;;;;;18.02;100.00;101837.41;5049300;28;20045;-70
2022/06/28 06:39:40;;;;;;;17.95;6.35;;;;;;;18.13;100.00;101840.09;5045350;28;20138;-69
2022/06/28 06:42:07;;;;;;;11.77;5.50;;;;;;;18.18;100.00;101850.81;5042665;28;20131;-70
2022/06/28 06:44:33;;;;;;;17.10;6.55;;;;;;;18.27;100.00;101849.09;5043288;28;20139;-68
2022/06/28 06:47:00;;;;;;;15.77;5.72;;;;;;;18.31;100.00;101851.81;5040206;28;20155;-70
2022/06/28 06:49:26;;;;;;;12.00;5.15;;;;;;;18.40;100.00;101850.13;5059956;28;20061;-69
2022/06/28 06:51:53;;;;;;;16.58;4.68;;;;;;;18.53;100.00;101851.09;5035154;28;20106;-70
2022/06/28 06:54:20;;;;;;;9.63;4.60;;;;;;;18.58;100.00;101850.63;5034127;28;20115;-71
2022/06/28 06:56:46;;;;;;;16.50;5.30;;;;;;;18.56;100.00;101855.06;5037374;28;20514;-70
2022/06/28 06:59:14;;;;;;;10.25;4.38;;;;;;;18.68;100.00;101858.06;5045856;28;20091;-71
2022/06/28 07:01:41;;;;;;;13.82;6.53;;;;;;;18.85;100.00;101854.19;5042814;28;20133;-71
2022/06/28 07:04:10;;;;;;;10.48;4.18;;;;;;;18.78;100.00;101854.31;5043546;28;20049;-71
2022/06/28 07:06:37;;;;;;;9.80;3.15;;;;;;;18.79;97.68;101858.69;5042280;28;20545;-72
2022/06/28 07:09:04;;;;;;;12.50;2.67;;;;;;;18.87;95.64;101865.75;5042598;28;20055;-70
2022/06/28 07:11:31;;;;;;;13.18;3.20;;;;;;;18.91;91.49;101854.47;5035174;28;20053;-73
2022/06/28 07:13:58;;;;;;;9.85;3.25;;;;;;;19.01;91.69;101847.91;5054120;28;20555;-71
2022/06/28 07:16:24;;;;;;;9.77;3.58;;;;;;;19.01;90.59;101848.69;5038981;28;20044;-72
2022/06/28 07:18:56;;;;;;;15.38;4.72;;;;;;;19.08;93.19;101848.56;5045686;28;20069;-71
2022/06/28 07:21:23;;;;;;;12.57;2.88;;;;;;;19.08;92.45;101856.19;5043816;28;20053;-70
2022/06/28 07:23:49;;;;;;;14.90;4.47;;;;;;;19.17;93.09;101850.81;5056746;28;20052;-70
2022/06/28 07:26:18;;;;;;;10.27;3.58;;;;;;;19.33;93.35;101854.53;5040050;28;20103;-69
2022/06/28 07:28:45;;;;;;;12.55;4.28;;;;;;;19.46;91.66;101855.47;5042282;28;20049;-69
2022/06/28 07:31:12;;;;;;;13.52;3.83;;;;;;;19.53;90.13;101851.72;5048963;28;20066;-70
2022/06/28 07:33:39;;;;;;;6.18;2.30;;;;;;;19.54;88.95;101861.75;5061171;28;20525;-70
2022/06/28 07:36:06;;;;;;;15.40;4.20;;;;;;;19.64;88.79;101863.56;5050076;28;20069;-70
2022/06/28 07:38:33;;;;;;;26.27;4.07;;;;;;;19.73;89.11;101858.94;5050038;28;20148;-70
2022/06/28 07:41:00;;;;;;;10.10;1.60;;;;;;;19.61;82.11;101862.38;5047657;28;20098;-68
2022/06/28 07:43:26;;;;;;;14.77;4.57;;;;;;;19.76;81.98;101857.28;5041033;28;20628;-69
2022/06/28 07:45:53;;;;;;;17.77;4.65;;;;;;;19.92;83.69;101852.50;5042511;28;20430;-70
2022/06/28 07:48:20;;;;;;;18.75;5.10;;;;;;;19.91;79.14;101850.91;5043094;28;20127;-69
2022/06/28 07:53:32;;;;;;;10.25;3.75;;;;;;;20.08;80.34;101835.69;5040800;28;20056;-71
2022/06/28 07:56:00;;;;;;;16.20;3.97;;;;;;;20.18;81.10;101836.69;5046317;28;20071;-69
2022/06/28 07:58:26;;;;;;;17.33;4.20;;;;;;;20.39;82.19;101841.84;5044816;28;20142;-71
2022/06/28 08:00:53;;;;;;;18.27;4.57;;;;;;;20.53;81.10;101843.50;5046127;28;20060;-67
2022/06/28 08:03:19;;;;;;;17.30;4.10;;;;;;;20.63;80.12;101839.66;5048438;28;20049;-68
2022/06/28 08:05:46;;;;;;;8.88;2.45;;;;;;;20.68;79.00;101841.97;5056692;28;20056;-67
2022/06/28 08:08:13;;;;;;;13.82;4.57;;;;;;;20.59;78.30;101836.94;5039472;28;20044;-70
2022/06/28 08:10:39;;;;;;;11.45;3.35;;;;;;;20.51;77.45;101838.34;5049809;28;20131;-69
2022/06/28 08:13:06;;;;;;;13.82;4.15;;;;;;;20.58;79.29;101837.38;5045035;28;20128;-70
2022/06/28 08:15:32;;;;;;;12.85;3.95;;;;;;;20.64;80.45;101835.59;5036226;28;20061;-70
2022/06/28 08:17:59;;;;;;;10.40;2.65;;;;;;;20.56;78.77;101839.84;5042289;28;20045;-70
2022/06/28 08:20:27;;;;;;;12.25;3.95;;;;;;;20.58;79.02;101826.13;5056179;28;20140;-69
2022/06/28 08:22:54;;;;;;;13.05;3.92;;;;;;;20.65;78.88;101823.91;5046944;28;20055;-70
2022/06/28 08:25:20;;;;;;;12.65;3.17;;;;;;;20.68;75.79;101825.09;5046336;28;20064;-70
2022/06/28 08:27:47;;;;;;;15.52;3.58;;;;;;;20.73;76.12;101822.53;5055073;28;20204;-71
2022/06/28 08:30:14;;;;;;;8.32;3.10;;;;;;;20.80;76.44;101822.34;5055591;28;20056;-71
2022/06/28 08:32:40;;;;;;;10.00;3.20;;;;;;;21.04;77.15;101825.75;5039847;28;20135;-70
2022/06/28 08:35:08;;;;;;;7.63;2.17;;;;;;;21.00;72.30;101823.06;5046836;28;20588;-71
2022/06/28 08:37:34;;;;;;;8.90;2.67;;;;;;;21.03;70.79;101819.34;5050097;28;20040;-70
2022/06/28 08:40:01;;;;;;;9.57;1.92;;;;;;;20.99;69.22;101821.44;5048276;28;20222;-71
2022/06/28 08:42:33;;;;;;;13.20;2.75;;;;;;;21.18;71.44;101814.13;5049526;28;20052;-73
2022/06/28 08:45:01;;;;;;;5.88;1.83;;;;;;;21.12;67.03;101808.25;5042944;28;20440;-73
2022/06/28 08:47:32;;;;;;;7.70;2.22;;;;;;;21.29;67.96;101806.19;5045153;28;20052;-72
2022/06/28 08:50:06;;;;;;;8.32;2.63;;;;;;;21.54;69.35;101804.25;5045857;28;20044;-71
2022/06/28 08:52:35;;;;;;;4.05;1.77;;;;;;;21.64;67.82;101808.78;5048608;28;20130;-72
2022/06/28 08:55:06;;;;;;;4.18;1.30;;;;;;;21.54;61.50;101820.34;5059591;28;20794;-71
2022/06/28 08:57:41;;;;;;;8.68;2.22;;;;;;;21.50;61.62;101811.97;5047156;28;20195;-72
2022/06/28 09:00:10;;;;;;;7.75;2.30;;;;;;;21.78;64.53;101816.03;5037216;28;20052;-73
2022/06/28 09:02:37;;;;;;;7.43;2.40;;;;;;;21.65;60.40;101799.06;5017068;28;20059;-73
2022/06/28 09:05:05;;;;;;;4.05;1.33;;;;;;;21.59;60.93;101800.06;5013003;28;20943;-73
2022/06/28 09:07:32;;;;;;;8.70;2.40;;;;;;;21.52;59.87;101806.69;5013688;28;20497;-73
2022/06/28 09:09:59;;;;;;;5.68;2.03;;;;;;;21.74;62.33;101799.22;5018791;28;20132;-72
2022/06/28 09:12:28;;;;;;;4.45;1.70;;;;;;;21.84;62.72;101800.94;5009288;28;20067;-71
2022/06/28 09:14:56;;;;;;;8.80;2.20;;;;;;;21.77;60.02;101794.75;5015260;28;20072;-72
2022/06/28 09:17:24;;;;;;;8.93;2.00;;;;;;;21.84;61.38;101806.56;5013392;28;20057;-72
2022/06/28 09:19:54;;;;;;;7.70;2.30;;;;;;;21.92;61.72;101781.78;5014450;28;20907;-72
2022/06/28 09:22:36;;;;;;;12.25;2.53;;;;;;;22.27;62.97;101798.38;5012182;28;20837;-73
2022/06/28 09:25:11;;;;;;;35.67;4.93;;;;;;;22.41;61.30;101797.91;5011965;28;20112;-70
2022/06/28 09:27:40;;;;;;;5.45;1.88;;;;;;;22.30;60.65;101793.84;5014831;28;20052;-73
2022/06/28 09:30:13;;;;;;;4.95;1.67;;;;;;;22.36;58.28;101794.88;5014247;28;20052;-73
2022/06/28 09:32:40;;;;;;;8.68;2.85;;;;;;;22.45;58.89;101794.97;5010923;28;20892;-73
2022/06/28 09:35:11;;;;;;;7.72;3.88;;;;;;;22.41;59.65;101800.72;5012414;28;20049;-74
2022/06/28 09:37:47;;;;;;;11.30;2.95;;;;;;;22.48;58.56;101794.88;5013123;28;20056;-75
2022/06/28 09:40:20;;;;;;;4.32;1.90;;;;;;;22.48;57.21;101794.06;5011839;28;20056;-75
2022/06/28 09:43:03;;;;;;;14.10;4.07;;;;;;;22.75;58.13;101795.16;5012526;28;20057;-74
2022/06/28 09:45:30;;;;;;;4.10;1.75;;;;;;;22.79;56.99;101797.88;5010664;28;20452;-73
2022/06/28 09:47:57;;;;;;;10.48;2.72;;;;;;;22.72;55.39;101787.59;5016459;28;20059;-72
2022/06/28 09:50:36;;;;;;;8.88;2.92;;;;;;;22.86;54.95;101786.34;5009987;28;20048;-71
2022/06/28 09:53:04;;;;;;;9.10;2.80;;;;;;;23.09;56.21;101785.94;5011184;28;20130;-72
2022/06/28 09:55:36;;;;;;;5.90;1.30;;;;;;;22.93;54.48;101782.47;5010921;28;20186;-73
2022/06/28 09:58:03;;;;;;;10.60;2.53;;;;;;;23.00;54.95;101788.66;5014367;28;20155;-70
2022/06/28 10:00:30;;;;;;;7.63;2.42;;;;;;;23.11;55.26;101779.81;5026212;28;20045;-72
2022/06/28 10:02:58;;;;;;;9.27;2.92;;;;;;;23.31;55.52;101774.66;5027746;28;20075;-72
2022/06/28 10:05:25;;;;;;;7.60;3.05;;;;;;;23.58;54.95;101774.84;5023477;28;20135;-71
2022/06/28 10:07:52;;;;;;;8.35;2.75;;;;;;;23.85;54.48;101767.31;5019619;28;20761;-74
2022/06/28 10:10:22;;;;;;;7.45;2.45;;;;;;;23.90;53.63;101769.56;5026995;28;20053;-74
2022/06/28 10:15:37;;;;;;;6.57;2.45;;;;;;;23.72;51.23;101768.66;5022347;28;20144;-70
2022/06/28 10:18:11;;;;;;;6.47;2.42;;;;;;;23.45;51.20;101771.31;5023963;28;20080;-73
2022/06/28 10:20:39;;;;;;;8.50;3.05;;;;;;;23.72;52.49;101754.53;5025608;28;20045;-72
2022/06/28 10:23:28;;;;;;;7.72;2.50;;;;;;;23.88;51.82;101755.09;5024021;28;20046;-72
2022/06/28 10:26:09;;;;;;;5.80;2.05;;;;;;;23.77;49.24;101768.06;5025770;28;20052;-72
2022/06/28 10:28:56;;;;;;;9.35;1.70;;;;;;;24.12;49.15;101752.53;5029581;28;20057;-72
2022/06/28 10:31:25;;;;;;;7.82;2.47;;;;;;;24.11;48.40;101740.44;5026124;28;20136;-72
2022/06/28 10:34:17;;;;;;;4.13;1.25;;;;;;;23.96;48.04;101744.31;5027916;28;20358;-73
2022/06/28 10:36:47;;;;;;;2.30;1.42;;;;;;;24.22;47.01;101740.00;5026563;28;20060;-73
2022/06/28 10:39:18;;;;;;;5.65;1.90;;;;;;;24.26;48.05;101735.75;5030190;28;20091;-71
2022/06/28 10:41:46;;;;;;;5.43;1.45;;;;;;;24.20;47.95;101739.69;5020620;28;20293;-73
2022/06/28 10:44:20;;;;;;;7.28;2.10;;;;;;;24.36;46.46;101728.88;5026531;28;20049;-72
2022/06/28 10:47:05;;;;;;;4.93;1.87;;;;;;;24.35;47.17;101737.81;5042131;28;20509;-74
2022/06/28 10:49:48;;;;;;;7.10;1.97;;;;;;;24.69;46.00;101735.56;5026039;28;20133;-72
2022/06/28 10:52:25;;;;;;;5.78;1.92;;;;;;;24.81;45.54;101734.63;5015210;28;20826;-74
2022/06/28 10:54:52;;;;;;;7.50;2.30;;;;;;;24.93;46.35;101732.91;5027078;28;20494;-72
2022/06/28 10:57:34;;;;;;;4.93;1.88;;;;;;;25.22;46.07;101715.41;5025053;28;20064;-72
2022/06/28 11:00:07;;;;;;;6.28;1.92;;;;;;;25.52;44.98;101720.91;5027956;28;20052;-73
2022/06/28 11:02:47;;;;;;;6.95;1.95;;;;;;;25.88;43.60;101712.25;5027871;28;20553;-72
2022/06/28 11:05:13;;;;;;;0.98;0.88;;;;;;;25.41;42.43;101717.00;5028049;28;20513;-73
2022/06/28 11:07:43;;;;;;;9.02;1.85;;;;;;;25.59;44.00;101706.41;5023896;28;20064;-75
2022/06/28 11:10:11;;;;;;;5.28;1.67;;;;;;;25.84;43.80;101713.69;5029848;28;20058;-73
2022/06/28 11:12:41;;;;;;;8.15;2.10;;;;;;;26.13;44.08;101711.06;5026146;28;20052;-73
2022/06/28 11:15:39;;;;;;;6.43;2.00;;;;;;;26.34;43.77;101705.09;5027673;28;20051;-77
2022/06/28 11:18:16;;;;;;;12.65;2.65;;;;;;;26.70;42.52;101704.84;5020585;28;20047;-75
2022/06/28 11:20:43;;;;;;;2.17;0.60;;;;;;;26.35;39.04;101694.53;5026836;28;20049;-73
2022/06/28 11:23:22;;;;;;;5.40;1.58;;;;;;;26.45;39.66;101701.69;5033990;28;20791;-71
2022/06/28 11:29:03;;;;;;;4.20;1.33;;;;;;;26.58;39.79;101699.41;5027844;28;20056;-76
2022/06/28 11:31:39;;;;;;;10.38;2.00;;;;;;;26.69;41.55;101691.19;5020404;28;20048;-75
2022/06/28 11:34:06;;;;;;;6.63;1.77;;;;;;;26.96;41.29;101682.38;5025835;28;20681;-77